Time;durP1;ratioP1;P1;durP2;ratioP2;P2;SDS_P1;SDS_P2;PMS_P1;PMS_P2;Temp;Humidity;BMP_temperature;BMP_pressure;BME280_temperature;BME280_humidity;BME280_pressure;Samples;Min_cycle;Max_cycle;Signal;HPM_P1;HPM_P2
2021/08/03 00:00:00;;;;;;;;;;;;;;;16.92;85.67;99843.95;1682644;84;21277;-81
2021/08/03 00:02:28;;;;;;;;;;;;;;;16.85;85.74;99843.41;1681511;83;20151;-81
2021/08/03 00:04:57;;;;;;;;;;;;;;;16.82;85.86;99839.00;1679466;84;20533;-82
2021/08/03 00:07:25;;;;;;;;;;;;;;;16.85;85.73;99846.07;1683487;84;20534;-81
2021/08/03 00:09:51;;;;;;;;;;;;;;;16.85;85.59;99842.07;1683309;84;20184;-84
2021/08/03 00:12:17;;;;;;;;;;;;;;;16.84;85.49;99845.78;1675220;84;21142;-81
2021/08/03 00:14:46;;;;;;;;;;;;;;;16.89;85.33;99852.36;1652294;84;20182;-83
2021/08/03 00:17:16;;;;;;;;;;;;;;;16.82;85.27;99854.48;1654402;84;20154;-83
2021/08/03 00:19:47;;;;;;;;;;;;;;;16.73;85.66;99851.70;1680702;84;20178;-83
2021/08/03 00:22:15;;;;;;;;;;;;;;;16.72;85.71;99852.75;1682427;83;20224;-91
2021/08/03 00:24:41;;;;;;;;;;;;;;;16.73;85.52;99855.70;1681271;84;21287;-82
2021/08/03 00:27:09;;;;;;;;;;;;;;;16.72;85.62;99862.08;1651579;84;20633;-81
2021/08/03 00:29:35;;;;;;;;;;;;;;;16.76;85.64;99857.97;1680733;84;20184;-86
2021/08/03 00:32:02;;;;;;;;;;;;;;;16.60;86.03;99863.70;1678885;84;20979;-81
2021/08/03 00:34:27;;;;;;;;;;;;;;;16.75;85.78;99857.67;1679937;84;20188;-80
2021/08/03 00:36:58;;;;;;;;;;;;;;;16.66;86.18;99862.89;1659628;83;22605;-83
2021/08/03 00:39:27;;;;;;;;;;;;;;;16.65;86.10;99859.38;1678821;83;20213;-81
2021/08/03 00:41:58;;;;;;;;;;;;;;;16.63;86.22;99867.30;1672032;84;20246;-85
2021/08/03 00:44:45;;;;;;;;;;;;;;;16.53;86.67;99862.86;1654272;83;20258;-87
2021/08/03 00:47:13;;;;;;;;;;;;;;;16.51;86.73;99867.91;1675540;83;20167;-80
2021/08/03 00:49:43;;;;;;;;;;;;;;;16.53;86.80;99869.52;1674854;83;20561;-80
2021/08/03 00:52:12;;;;;;;;;;;;;;;16.72;86.17;99864.75;1677616;83;20203;-80
2021/08/03 00:54:40;;;;;;;;;;;;;;;16.74;85.81;99861.36;1672623;83;20134;-82
2021/08/03 00:57:08;;;;;;;;;;;;;;;16.74;85.96;99869.35;1678749;84;20214;-81
2021/08/03 00:59:37;;;;;;;;;;;;;;;16.62;86.46;99866.98;1682374;83;20309;-81
2021/08/03 01:02:05;;;;;;;;;;;;;;;16.62;86.31;99872.31;1679120;84;20178;-82
2021/08/03 01:04:32;;;;;;;;;;;;;;;16.47;87.32;99868.51;1641383;85;20210;-81
2021/08/03 01:07:18;;;;;;;;;;;;;;;16.61;86.51;99867.98;1637055;85;20170;-85
2021/08/03 01:10:20;;;;;;;;;;;;;;;16.49;86.47;99871.26;1641394;85;20131;-87
2021/08/03 01:12:55;;;;;;;;;;;;;;;16.49;86.71;99871.26;1641620;85;20142;-80
2021/08/03 01:15:24;;;;;;;;;;;;;;;16.41;86.77;99870.13;1643391;85;21023;-79
2021/08/03 01:18:06;;;;;;;;;;;;;;;16.41;87.13;99875.45;1637914;85;20191;-79
2021/08/03 01:20:57;;;;;;;;;;;;;;;16.42;86.80;99872.27;1625338;85;20530;-86
2021/08/03 01:23:47;;;;;;;;;;;;;;;16.51;86.47;99872.39;1568597;90;20197;-82
2021/08/03 01:26:33;;;;;;;;;;;;;;;16.47;86.21;99873.31;1566280;90;20246;-81
2021/08/03 01:29:02;;;;;;;;;;;;;;;16.40;86.23;99875.12;1618312;85;20132;-82
2021/08/03 01:31:31;;;;;;;;;;;;;;;16.47;86.07;99877.31;1639607;85;20460;-81
2021/08/03 01:34:12;;;;;;;;;;;;;;;16.57;85.58;99880.10;1636401;85;20207;-81
2021/08/03 01:36:40;;;;;;;;;;;;;;;16.48;85.65;99874.97;1628463;85;20310;-81
2021/08/03 01:39:09;;;;;;;;;;;;;;;16.40;85.88;99878.32;1642830;85;20218;-81
2021/08/03 01:41:34;;;;;;;;;;;;;;;16.42;85.92;99874.44;1621703;85;21765;-84
2021/08/03 01:44:02;;;;;;;;;;;;;;;16.41;85.81;99882.11;1641495;85;20135;-81
2021/08/03 01:46:29;;;;;;;;;;;;;;;16.41;85.55;99886.11;1622798;85;20185;-82
2021/08/03 01:48:56;;;;;;;;;;;;;;;16.39;85.88;99884.17;1646389;85;20198;-83
2021/08/03 01:51:22;;;;;;;;;;;;;;;16.41;85.17;99895.44;1620341;85;20527;-83
2021/08/03 01:53:52;;;;;;;;;;;;;;;16.44;85.24;99892.38;1644373;85;21113;-86
2021/08/03 01:56:21;;;;;;;;;;;;;;;16.49;85.08;99888.58;1643021;85;20231;-86
2021/08/03 01:58:48;;;;;;;;;;;;;;;16.56;84.67;99891.78;1642264;85;20152;-84
2021/08/03 02:01:15;;;;;;;;;;;;;;;16.61;84.50;99896.83;1641249;85;20223;-83
2021/08/03 02:03:47;;;;;;;;;;;;;;;16.59;84.66;99899.38;1659847;84;20178;-82
2021/08/03 02:06:15;;;;;;;;;;;;;;;16.58;84.60;99901.23;1680350;85;21303;-82
2021/08/03 02:08:45;;;;;;;;;;;;;;;16.54;84.58;99899.98;1670353;84;20185;-82
2021/08/03 02:11:14;;;;;;;;;;;;;;;16.45;84.75;99898.52;1677671;83;21153;-82
2021/08/03 02:13:39;;;;;;;;;;;;;;;16.30;85.99;99902.69;1676427;85;20533;-86
2021/08/03 02:16:06;;;;;;;;;;;;;;;16.39;85.42;99896.65;1678999;84;20149;-81
2021/08/03 02:18:32;;;;;;;;;;;;;;;16.39;85.14;99908.16;1677529;84;21113;-83
2021/08/03 02:20:59;;;;;;;;;;;;;;;16.37;85.15;99908.03;1679258;83;20194;-83
2021/08/03 02:23:27;;;;;;;;;;;;;;;16.30;85.03;99903.50;1653527;84;20137;-87
2021/08/03 02:25:57;;;;;;;;;;;;;;;16.24;85.36;99910.15;1675671;84;20262;-79
2021/08/03 02:28:25;;;;;;;;;;;;;;;16.31;85.10;99908.31;1673835;85;20186;-80
2021/08/03 02:30:51;;;;;;;;;;;;;;;16.36;84.65;99911.22;1677691;83;21059;-79
2021/08/03 02:33:20;;;;;;;;;;;;;;;16.35;84.80;99912.23;1657500;85;20150;-79
2021/08/03 02:35:56;;;;;;;;;;;;;;;16.17;85.36;99914.62;1680061;85;20485;-81
2021/08/03 02:38:23;;;;;;;;;;;;;;;16.08;85.28;99906.80;1656977;85;20222;-78
2021/08/03 02:40:49;;;;;;;;;;;;;;;16.04;85.19;99918.05;1654490;84;20199;-82
2021/08/03 02:43:19;;;;;;;;;;;;;;;16.00;85.43;99921.59;1663305;84;21100;-82
2021/08/03 02:45:46;;;;;;;;;;;;;;;15.88;85.78;99916.52;1673075;85;20186;-80
2021/08/03 02:48:14;;;;;;;;;;;;;;;15.94;85.52;99914.40;1677671;85;20180;-79
2021/08/03 02:50:43;;;;;;;;;;;;;;;15.85;85.52;99909.77;1678393;84;20170;-83
2021/08/03 02:53:14;;;;;;;;;;;;;;;15.82;85.89;99912.81;1658944;84;20202;-83
2021/08/03 02:55:42;;;;;;;;;;;;;;;15.74;86.39;99909.77;1678210;83;22676;-79
2021/08/03 02:58:15;;;;;;;;;;;;;;;15.68;86.17;99914.55;1677952;83;20174;-80
2021/08/03 03:00:42;;;;;;;;;;;;;;;15.56;86.48;99924.09;1676832;85;20154;-79
2021/08/03 03:03:11;;;;;;;;;;;;;;;15.48;86.50;99925.05;1649480;84;20170;-83
2021/08/03 03:05:40;;;;;;;;;;;;;;;15.51;86.41;99929.18;1671525;84;20202;-79
2021/08/03 03:08:10;;;;;;;;;;;;;;;15.42;86.29;99931.96;1672920;85;21182;-79
2021/08/03 03:10:40;;;;;;;;;;;;;;;15.49;86.67;99935.19;1646346;85;20951;-82
2021/08/03 03:13:22;;;;;;;;;;;;;;;15.44;86.10;99932.61;1674780;84;20158;-80
2021/08/03 03:15:51;;;;;;;;;;;;;;;15.38;86.64;99941.37;1672886;84;20105;-83
2021/08/03 03:18:22;;;;;;;;;;;;;;;15.26;87.22;99948.22;1673304;84;20242;-81
2021/08/03 03:20:48;;;;;;;;;;;;;;;15.28;86.90;99943.52;1672315;84;20172;-80
2021/08/03 03:23:18;;;;;;;;;;;;;;;15.28;86.50;99946.19;1673606;84;20513;-85
2021/08/03 03:25:45;;;;;;;;;;;;;;;15.23;86.57;99945.95;1670519;84;20135;-85
2021/08/03 03:28:10;;;;;;;;;;;;;;;15.26;86.15;99950.88;1651170;85;20818;-79
2021/08/03 03:30:44;;;;;;;;;;;;;;;15.19;86.66;99948.14;1674235;84;20311;-79
2021/08/03 03:33:10;;;;;;;;;;;;;;;15.21;86.55;99952.79;1652579;85;21523;-82
2021/08/03 03:35:38;;;;;;;;;;;;;;;15.20;86.17;99953.80;1671853;85;20144;-78
2021/08/03 03:38:05;;;;;;;;;;;;;;;15.26;85.79;99952.22;1653631;85;20165;-82
2021/08/03 03:40:36;;;;;;;;;;;;;;;15.28;85.96;99961.33;1669479;85;20209;-78
2021/08/03 03:43:04;;;;;;;;;;;;;;;15.33;85.37;99962.38;1673306;84;20621;-78
2021/08/03 03:45:29;;;;;;;;;;;;;;;15.39;85.21;99958.95;1672371;85;20096;-79
2021/08/03 03:48:02;;;;;;;;;;;;;;;15.57;84.51;99963.81;1671536;85;20138;-80
2021/08/03 03:50:37;;;;;;;;;;;;;;;15.62;83.98;99967.23;1653196;85;20096;-79
2021/08/03 03:53:23;;;;;;;;;;;;;;;15.55;84.21;99967.68;1671583;82;20151;-86
2021/08/03 03:55:54;;;;;;;;;;;;;;;15.48;84.31;99966.83;1675793;84;20188;-79
2021/08/03 03:58:19;;;;;;;;;;;;;;;15.47;84.11;99968.64;1674155;85;21079;-84
2021/08/03 04:00:45;;;;;;;;;;;;;;;15.53;83.55;99970.53;1674488;83;20187;-78
2021/08/03 04:03:10;;;;;;;;;;;;;;;15.44;84.22;99974.34;1657579;84;20173;-78
2021/08/03 04:05:37;;;;;;;;;;;;;;;15.42;84.09;99977.20;1660415;85;20328;-83
2021/08/03 04:08:04;;;;;;;;;;;;;;;15.55;83.48;99975.66;1675367;83;20475;-83
2021/08/03 04:10:34;;;;;;;;;;;;;;;15.42;83.85;99978.53;1656360;85;21097;-78
2021/08/03 04:13:02;;;;;;;;;;;;;;;15.32;84.04;99983.38;1676897;83;20113;-78
2021/08/03 04:15:28;;;;;;;;;;;;;;;15.42;83.98;99979.86;1658527;85;20159;-80
2021/08/03 04:17:56;;;;;;;;;;;;;;;15.48;83.74;99982.79;1672400;84;20199;-84
2021/08/03 04:20:22;;;;;;;;;;;;;;;15.55;83.08;99976.99;1677324;85;20176;-81
2021/08/03 04:22:48;;;;;;;;;;;;;;;15.54;82.91;99974.03;1656206;84;22295;-78
2021/08/03 04:25:14;;;;;;;;;;;;;;;15.51;82.96;99977.89;1676943;84;20158;-81
2021/08/03 04:27:39;;;;;;;;;;;;;;;15.63;82.82;99975.54;1677719;84;20197;-79
2021/08/03 04:30:06;;;;;;;;;;;;;;;15.49;82.92;99983.08;1672880;85;20750;-82
2021/08/03 04:32:33;;;;;;;;;;;;;;;15.41;83.63;99986.22;1678751;85;20532;-81
2021/08/03 04:34:59;;;;;;;;;;;;;;;15.57;82.72;99986.95;1680768;84;20116;-84
2021/08/03 04:37:24;;;;;;;;;;;;;;;15.56;82.84;99979.98;1654153;85;20147;-82
2021/08/03 04:39:53;;;;;;;;;;;;;;;15.67;82.37;99986.61;1655946;83;20178;-79
2021/08/03 04:42:25;;;;;;;;;;;;;;;15.75;81.42;99983.31;1679695;84;20143;-78
2021/08/03 04:44:52;;;;;;;;;;;;;;;15.79;81.21;99977.11;1672320;85;20193;-80
2021/08/03 04:47:19;;;;;;;;;;;;;;;15.90;80.37;99991.72;1676225;83;21066;-83
2021/08/03 04:49:45;;;;;;;;;;;;;;;15.89;80.07;99995.39;1654924;85;21051;-82
2021/08/03 04:52:10;;;;;;;;;;;;;;;15.91;80.73;99990.69;1655944;85;20180;-85
2021/08/03 04:54:40;;;;;;;;;;;;;;;15.95;80.10;99991.95;1665951;83;20615;-80
2021/08/03 04:57:09;;;;;;;;;;;;;;;15.95;79.18;100007.41;1653885;84;20229;-82
2021/08/03 04:59:36;;;;;;;;;;;;;;;16.04;78.67;100000.63;1679575;83;21123;-80
2021/08/03 05:02:05;;;;;;;;;;;;;;;16.12;79.08;99997.27;1678416;84;20126;-82
2021/08/03 05:04:34;;;;;;;;;;;;;;;16.09;78.85;100002.99;1658058;84;20188;-80
2021/08/03 05:07:01;;;;;;;;;;;;;;;16.28;78.09;99997.48;1680373;83;20467;-83
2021/08/03 05:09:31;;;;;;;;;;;;;;;16.49;77.77;100002.39;1654108;84;20211;-81
2021/08/03 05:11:58;;;;;;;;;;;;;;;16.45;76.43;100011.30;1683330;83;21350;-81
2021/08/03 05:14:25;;;;;;;;;;;;;;;16.61;76.88;100014.62;1650803;84;20191;-81
2021/08/03 05:16:54;;;;;;;;;;;;;;;16.69;75.99;100011.80;1679575;84;20227;-79
2021/08/03 05:19:19;;;;;;;;;;;;;;;16.82;76.20;100016.34;1675992;84;20171;-80
2021/08/03 05:21:49;;;;;;;;;;;;;;;16.90;75.41;100018.86;1675722;84;20249;-86
2021/08/03 05:24:25;;;;;;;;;;;;;;;16.95;74.82;100018.25;1682651;84;20510;-82
2021/08/03 05:26:49;;;;;;;;;;;;;;;17.09;74.32;100026.63;1678964;84;20136;-81
2021/08/03 05:29:19;;;;;;;;;;;;;;;17.10;73.93;100032.25;1679351;84;20242;-81
2021/08/03 05:31:46;;;;;;;;;;;;;;;17.19;73.70;100033.70;1680631;83;20209;-81
2021/08/03 05:34:20;;;;;;;;;;;;;;;17.25;73.06;100036.61;1661307;84;20228;-80
2021/08/03 05:36:49;;;;;;;;;;;;;;;17.30;72.87;100045.63;1672152;84;20140;-80
2021/08/03 05:39:18;;;;;;;;;;;;;;;17.41;73.04;100037.53;1676681;84;20973;-79
2021/08/03 05:41:47;;;;;;;;;;;;;;;17.49;72.08;100042.67;1679536;84;20185;-79
2021/08/03 05:44:13;;;;;;;;;;;;;;;17.45;71.93;100049.46;1680032;84;20208;-81
2021/08/03 05:46:40;;;;;;;;;;;;;;;17.47;71.81;100047.41;1679677;84;20194;-84
2021/08/03 05:49:08;;;;;;;;;;;;;;;17.49;70.93;100042.67;1679975;83;21000;-81
2021/08/03 05:51:33;;;;;;;;;;;;;;;17.73;71.02;100044.45;1677454;84;20220;-85
2021/08/03 05:54:01;;;;;;;;;;;;;;;17.78;70.34;100041.97;1677607;83;20122;-82
2021/08/03 05:56:30;;;;;;;;;;;;;;;17.93;69.51;100050.63;1686348;83;20523;-80
2021/08/03 05:59:00;;;;;;;;;;;;;;;17.87;68.55;100040.73;1660172;84;20198;-79
2021/08/03 06:01:29;;;;;;;;;;;;;;;18.08;68.58;100046.38;1672683;84;20930;-81
2021/08/03 06:03:54;;;;;;;;;;;;;;;18.17;67.81;100048.33;1683348;84;20498;-82
2021/08/03 06:06:20;;;;;;;;;;;;;;;18.35;67.33;100049.02;1654659;85;20162;-81
2021/08/03 06:08:47;;;;;;;;;;;;;;;18.28;66.20;100054.36;1678209;84;20226;-80
2021/08/03 06:11:17;;;;;;;;;;;;;;;18.33;66.39;100044.37;1653998;85;20777;-79
2021/08/03 06:13:49;;;;;;;;;;;;;;;18.33;66.31;100046.23;1673049;83;20744;-84
2021/08/03 06:16:16;;;;;;;;;;;;;;;18.42;66.47;100045.79;1653321;85;20161;-79
2021/08/03 06:18:42;;;;;;;;;;;;;;;18.36;65.92;100053.84;1672989;85;20215;-83
2021/08/03 06:21:10;;;;;;;;;;;;;;;18.44;65.83;100053.59;1675848;85;20235;-81
2021/08/03 06:23:37;;;;;;;;;;;;;;;18.29;65.55;100057.34;1656719;85;20165;-83
2021/08/03 06:26:05;;;;;;;;;;;;;;;18.51;65.36;100057.61;1678420;84;21216;-82
2021/08/03 06:28:32;;;;;;;;;;;;;;;18.51;64.87;100061.09;1653818;85;20214;-79
2021/08/03 06:30:58;;;;;;;;;;;;;;;18.46;65.02;100063.59;1681094;83;20213;-79
2021/08/03 06:33:26;;;;;;;;;;;;;;;18.52;64.37;100056.56;1678109;85;20150;-80
2021/08/03 06:35:54;;;;;;;;;;;;;;;18.53;65.22;100060.36;1679716;85;20187;-80
2021/08/03 06:38:21;;;;;;;;;;;;;;;18.60;65.09;100061.17;1679639;85;21091;-78
2021/08/03 06:40:59;;;;;;;;;;;;;;;18.68;64.91;100070.00;1677215;84;20651;-79
2021/08/03 06:43:34;;;;;;;;;;;;;;;18.69;64.42;100068.95;1680932;84;20495;-79
2021/08/03 06:46:12;;;;;;;;;;;;;;;18.78;63.83;100060.99;1677099;84;20227;-83
2021/08/03 06:49:01;;;;;;;;;;;;;;;18.95;63.81;100064.84;1675444;85;20182;-82
2021/08/03 06:51:32;;;;;;;;;;;;;;;19.08;63.66;100069.83;1672432;84;21890;-80
2021/08/03 06:54:02;;;;;;;;;;;;;;;19.26;62.93;100069.12;1674438;84;20231;-81
2021/08/03 06:56:34;;;;;;;;;;;;;;;19.45;61.81;100071.36;1675441;84;20260;-79
2021/08/03 06:59:09;;;;;;;;;;;;;;;19.64;61.26;100065.55;1676470;84;20235;-81
2021/08/03 07:01:50;;;;;;;;;;;;;;;19.60;61.12;100065.17;1676679;84;20203;-83
2021/08/03 07:04:21;;;;;;;;;;;;;;;19.58;61.24;100063.25;1674884;84;21048;-81
2021/08/03 07:06:50;;;;;;;;;;;;;;;19.62;60.95;100061.75;1680278;85;20203;-80
2021/08/03 07:09:18;;;;;;;;;;;;;;;19.80;60.82;100057.02;1681158;83;20153;-82
2021/08/03 07:11:51;;;;;;;;;;;;;;;19.86;60.13;100059.34;1679035;85;20954;-79
2021/08/03 07:14:21;;;;;;;;;;;;;;;20.03;59.71;100067.13;1676363;84;20214;-83
2021/08/03 07:16:52;;;;;;;;;;;;;;;20.03;58.56;100073.82;1683414;83;20739;-83
2021/08/03 07:19:21;;;;;;;;;;;;;;;20.05;58.97;100062.34;1681727;85;20508;-82
2021/08/03 07:21:47;;;;;;;;;;;;;;;20.15;58.10;100057.00;1677658;85;20187;-79
2021/08/03 07:24:15;;;;;;;;;;;;;;;20.21;58.37;100059.64;1646848;85;20312;-80
2021/08/03 07:26:43;;;;;;;;;;;;;;;20.30;57.52;100061.48;1679331;85;20230;-79
2021/08/03 07:29:09;;;;;;;;;;;;;;;20.29;57.06;100066.57;1678693;85;21234;-79
2021/08/03 07:31:36;;;;;;;;;;;;;;;20.29;56.76;100059.87;1678293;84;20861;-79
2021/08/03 07:34:04;;;;;;;;;;;;;;;20.33;56.73;100066.41;1678770;83;20193;-79
2021/08/03 07:36:29;;;;;;;;;;;;;;;20.35;56.56;100068.33;1680395;84;20140;-78
2021/08/03 07:38:58;;;;;;;;;;;;;;;20.41;56.65;100066.64;1677956;85;20162;-79
2021/08/03 07:41:26;;;;;;;;;;;;;;;20.48;56.67;100063.37;1663290;84;20196;-80
2021/08/03 07:43:55;;;;;;;;;;;;;;;20.40;56.02;100067.16;1664518;85;20205;-87
2021/08/03 07:46:20;;;;;;;;;;;;;;;20.48;56.66;100070.58;1682047;85;20190;-81
2021/08/03 07:48:50;;;;;;;;;;;;;;;20.40;55.58;100061.80;1678909;85;20181;-86
2021/08/03 07:51:18;;;;;;;;;;;;;;;20.64;54.50;100064.63;1674985;85;20143;-80
2021/08/03 07:53:46;;;;;;;;;;;;;;;20.51;54.84;100066.95;1660125;85;21879;-81
2021/08/03 07:56:17;;;;;;;;;;;;;;;20.52;54.04;100071.78;1678240;84;20144;-77
2021/08/03 07:58:42;;;;;;;;;;;;;;;20.48;53.85;100061.19;1661749;85;20542;-82
2021/08/03 08:01:09;;;;;;;;;;;;;;;20.71;53.64;100070.77;1680931;84;20139;-81
2021/08/03 08:03:36;;;;;;;;;;;;;;;20.70;53.34;100071.80;1682431;83;20262;-78
2021/08/03 08:06:02;;;;;;;;;;;;;;;20.77;53.54;100064.50;1676763;85;21311;-79
2021/08/03 08:08:28;;;;;;;;;;;;;;;20.96;53.93;100063.13;1679303;84;20195;-81
2021/08/03 08:10:53;;;;;;;;;;;;;;;20.97;53.47;100065.59;1679756;85;20154;-81
2021/08/03 08:13:22;;;;;;;;;;;;;;;20.98;53.35;100066.41;1678769;85;20155;-79
2021/08/03 08:15:49;;;;;;;;;;;;;;;20.90;51.37;100065.38;1678789;84;20159;-78
2021/08/03 08:18:17;;;;;;;;;;;;;;;21.06;51.65;100070.11;1676591;84;21370;-79
2021/08/03 08:20:44;;;;;;;;;;;;;;;21.19;52.05;100073.12;1678860;84;20166;-79
2021/08/03 08:23:11;;;;;;;;;;;;;;;21.21;51.73;100066.17;1676046;84;20542;-78
2021/08/03 08:25:38;;;;;;;;;;;;;;;21.15;51.20;100071.42;1674076;84;20530;-79
2021/08/03 08:28:08;;;;;;;;;;;;;;;21.02;50.50;100078.34;1679998;83;20187;-81
2021/08/03 08:30:34;;;;;;;;;;;;;;;21.07;48.52;100071.75;1676692;85;21026;-88
2021/08/03 08:33:01;;;;;;;;;;;;;;;21.24;49.79;100064.37;1658465;84;20649;-80
2021/08/03 08:35:27;;;;;;;;;;;;;;;21.33;50.35;100072.41;1672081;84;20472;-80
2021/08/03 08:37:52;;;;;;;;;;;;;;;21.38;50.62;100067.19;1675038;85;20181;-79
2021/08/03 08:40:19;;;;;;;;;;;;;;;21.65;49.57;100066.80;1677774;84;20153;-81
2021/08/03 08:42:46;;;;;;;;;;;;;;;21.76;49.97;100063.30;1677497;84;22052;-85
2021/08/03 08:45:12;;;;;;;;;;;;;;;21.75;49.31;100065.72;1671751;84;20484;-79
2021/08/03 08:47:37;;;;;;;;;;;;;;;21.67;49.79;100078.13;1675100;84;20141;-81
2021/08/03 08:50:07;;;;;;;;;;;;;;;21.70;49.73;100072.30;1680792;85;20151;-84
2021/08/03 08:52:35;;;;;;;;;;;;;;;21.69;48.56;100059.92;1662495;83;20226;-79
2021/08/03 08:55:03;;;;;;;;;;;;;;;21.73;49.27;100069.14;1677583;85;21265;-80
2021/08/03 08:57:32;;;;;;;;;;;;;;;21.77;48.01;100064.14;1663607;84;20159;-80
2021/08/03 08:59:59;;;;;;;;;;;;;;;21.91;48.05;100072.77;1678147;84;20143;-82
2021/08/03 09:02:35;;;;;;;;;;;;;;;22.08;47.75;100060.28;1675615;84;20182;-83
2021/08/03 09:05:04;;;;;;;;;;;;;;;21.96;46.60;100070.23;1683620;83;20246;-81
2021/08/03 09:07:31;;;;;;;;;;;;;;;21.95;47.36;100065.89;1664012;85;21438;-79
2021/08/03 09:10:00;;;;;;;;;;;;;;;22.00;47.68;100068.69;1674894;84;20258;-85
2021/08/03 09:12:35;;;;;;;;;;;;;;;22.04;47.70;100067.17;1675612;85;20205;-79
2021/08/03 09:15:02;;;;;;;;;;;;;;;22.10;47.89;100067.59;1678927;84;20481;-80
2021/08/03 09:17:32;;;;;;;;;;;;;;;22.09;47.17;100065.94;1679027;84;20200;-81
2021/08/03 09:20:03;;;;;;;;;;;;;;;22.14;47.16;100070.11;1677909;85;20111;-79
2021/08/03 09:22:30;;;;;;;;;;;;;;;21.98;46.74;100065.42;1674223;85;20183;-78
2021/08/03 09:25:17;;;;;;;;;;;;;;;21.77;46.90;100064.95;1684502;84;20206;-83
2021/08/03 09:27:45;;;;;;;;;;;;;;;21.99;46.90;100064.37;1618617;87;20718;-80
2021/08/03 09:30:26;;;;;;;;;;;;;;;22.11;47.39;100061.16;1627590;87;20172;-80
2021/08/03 09:32:54;;;;;;;;;;;;;;;22.26;46.94;100062.55;1633836;87;21358;-82
2021/08/03 09:35:22;;;;;;;;;;;;;;;22.24;45.20;100058.21;1631918;87;20178;-85
2021/08/03 09:37:48;;;;;;;;;;;;;;;22.38;45.58;100060.70;1606890;87;20193;-81
2021/08/03 09:40:32;;;;;;;;;;;;;;;22.35;45.42;100059.82;1677375;84;20222;-80
2021/08/03 09:43:08;;;;;;;;;;;;;;;22.23;46.23;100069.20;1680657;84;20207;-82
2021/08/03 09:45:38;;;;;;;;;;;;;;;22.14;46.27;100063.38;1676138;85;21041;-80
2021/08/03 09:48:11;;;;;;;;;;;;;;;22.13;46.13;100068.46;1680289;84;20257;-79
2021/08/03 09:50:51;;;;;;;;;;;;;;;22.27;46.38;100062.85;1677557;85;20565;-87
2021/08/03 09:53:38;;;;;;;;;;;;;;;22.08;46.31;100069.70;1659413;85;20244;-83
2021/08/03 09:56:05;;;;;;;;;;;;;;;22.06;45.02;100059.69;1674252;85;20135;-88
2021/08/03 09:58:53;;;;;;;;;;;;;;;22.04;45.47;100069.87;1680425;83;22306;-86
2021/08/03 10:01:25;;;;;;;;;;;;;;;22.02;45.61;100074.13;1679039;84;20131;-83
2021/08/03 10:03:51;;;;;;;;;;;;;;;22.18;45.32;100073.95;1674036;84;20139;-90
2021/08/03 10:06:18;;;;;;;;;;;;;;;22.12;44.89;100077.57;1680323;83;20164;-86
2021/08/03 10:08:48;;;;;;;;;;;;;;;22.11;46.09;100071.92;1663095;84;37722;-89
2021/08/03 10:11:18;;;;;;;;;;;;;;;22.18;46.27;100079.33;1662024;85;21843;-83
2021/08/03 10:13:44;;;;;;;;;;;;;;;22.27;46.19;100068.23;1663519;84;20172;-83
2021/08/03 10:16:12;;;;;;;;;;;;;;;22.36;46.17;100070.88;1679098;85;20169;-82
2021/08/03 10:18:39;;;;;;;;;;;;;;;22.64;45.56;100067.94;1678620;84;20146;-83
2021/08/03 10:21:06;;;;;;;;;;;;;;;22.73;44.66;100061.13;1682278;83;20458;-83
2021/08/03 10:23:33;;;;;;;;;;;;;;;22.61;44.02;100072.45;1680484;85;21121;-82
2021/08/03 10:25:58;;;;;;;;;;;;;;;22.86;44.95;100066.24;1678160;84;20499;-83
2021/08/03 10:28:30;;;;;;;;;;;;;;;23.15;45.03;100068.98;1641716;85;20168;-83
2021/08/03 10:30:56;;;;;;;;;;;;;;;23.15;43.79;100071.67;1679189;85;20454;-84
2021/08/03 10:33:41;;;;;;;;;;;;;;;23.26;43.47;100081.57;1661114;84;20234;-84
2021/08/03 10:36:08;;;;;;;;;;;;;;;23.40;42.86;100079.39;1682254;85;21261;-84
2021/08/03 10:38:36;;;;;;;;;;;;;;;23.42;42.67;100080.49;1681524;83;21000;-82
2021/08/03 10:41:03;;;;;;;;;;;;;;;22.99;42.37;100068.36;1669022;85;20162;-83
2021/08/03 10:43:41;;;;;;;;;;;;;;;23.09;43.23;100074.80;1679229;85;20139;-84
2021/08/03 10:46:12;;;;;;;;;;;;;;;23.20;43.32;100073.64;1685038;84;20257;-87
2021/08/03 10:48:42;;;;;;;;;;;;;;;23.12;43.82;100066.77;1680760;85;20978;-90
2021/08/03 10:51:18;;;;;;;;;;;;;;;23.11;43.31;100063.78;1679833;85;20468;-86
2021/08/03 10:54:04;;;;;;;;;;;;;;;23.28;43.79;100068.66;1676779;85;20223;-84
2021/08/03 10:56:32;;;;;;;;;;;;;;;23.38;43.66;100070.70;1675962;83;20183;-83
2021/08/03 10:59:35;;;;;;;;;;;;;;;23.40;44.74;100066.42;1644158;83;20253;-83
2021/08/03 11:02:02;;;;;;;;;;;;;;;23.49;45.23;100069.01;1695611;83;21711;-83
2021/08/03 11:04:49;;;;;;;;;;;;;;;23.32;45.08;100064.14;1692456;83;20480;-85
2021/08/03 11:07:31;;;;;;;;;;;;;;;23.39;45.02;100062.12;1675427;83;20121;-87
2021/08/03 11:10:01;;;;;;;;;;;;;;;23.42;43.87;100062.98;1685541;83;20886;-86
2021/08/03 11:12:42;;;;;;;;;;;;;;;23.55;44.47;100053.20;1676472;84;20187;-83
2021/08/03 11:15:24;;;;;;;;;;;;;;;23.81;45.39;100054.44;1685083;83;21078;-86
2021/08/03 11:17:55;;;;;;;;;;;;;;;23.55;41.34;100066.69;1680640;84;20148;-86
2021/08/03 11:20:40;;;;;;;;;;;;;;;23.29;41.81;100060.87;1682756;83;20170;-86
2021/08/03 11:23:07;;;;;;;;;;;;;;;23.31;42.79;100059.29;1674530;83;20206;-83
2021/08/03 11:25:33;;;;;;;;;;;;;;;23.08;44.09;100060.19;1683069;84;20177;-84
2021/08/03 11:28:10;;;;;;;;;;;;;;;23.40;44.03;100055.65;1680063;84;20993;-86
2021/08/03 11:30:35;;;;;;;;;;;;;;;23.28;44.80;100066.51;1683300;83;20515;-85
2021/08/03 11:33:01;;;;;;;;;;;;;;;23.16;44.55;100059.82;1683477;84;20725;-84
2021/08/03 11:35:27;;;;;;;;;;;;;;;23.05;45.29;100055.28;1682084;84;20167;-86
2021/08/03 11:37:53;;;;;;;;;;;;;;;23.20;44.78;100060.17;1682249;84;20233;-88
2021/08/03 11:40:18;;;;;;;;;;;;;;;23.16;44.63;100055.78;1682960;83;22585;-89
2021/08/03 11:42:46;;;;;;;;;;;;;;;23.28;44.76;100048.45;1679554;83;20459;-86
2021/08/03 11:45:23;;;;;;;;;;;;;;;23.11;44.89;100051.11;1682010;83;20242;-85
2021/08/03 11:47:56;;;;;;;;;;;;;;;23.21;44.78;100041.59;1683588;84;20237;-85
2021/08/03 11:50:40;;;;;;;;;;;;;;;23.33;44.07;100050.96;1662832;84;20202;-90
2021/08/03 11:53:13;;;;;;;;;;;;;;;23.50;43.07;100042.89;1682963;83;21099;-83
2021/08/03 11:55:42;;;;;;;;;;;;;;;23.40;43.68;100056.48;1656414;84;20987;-91
2021/08/03 11:58:11;;;;;;;;;;;;;;;23.32;43.00;100058.75;1675558;83;20621;-83
2021/08/03 12:00:37;;;;;;;;;;;;;;;23.25;43.62;100040.86;1681433;83;20618;-83
2021/08/03 12:03:05;;;;;;;;;;;;;;;23.38;44.08;100049.69;1677505;84;20178;-84
2021/08/03 12:05:35;;;;;;;;;;;;;;;23.52;44.42;100044.27;1680611;84;21235;-84
2021/08/03 12:08:10;;;;;;;;;;;;;;;23.78;44.83;100040.09;1688169;83;20135;-84
2021/08/03 12:10:38;;;;;;;;;;;;;;;23.74;44.35;100042.18;1685495;83;20455;-88
2021/08/03 12:13:07;;;;;;;;;;;;;;;23.99;43.93;100035.05;1686814;84;20211;-85
2021/08/03 12:15:52;;;;;;;;;;;;;;;24.16;43.49;100039.88;1688013;83;20219;-85
2021/08/03 12:18:24;;;;;;;;;;;;;;;24.07;43.68;100033.81;1686577;83;20461;-84
2021/08/03 12:20:57;;;;;;;;;;;;;;;24.11;43.49;100032.23;1687141;84;20825;-85
2021/08/03 12:23:30;;;;;;;;;;;;;;;23.98;43.07;100026.13;1686140;83;20186;-93
2021/08/03 12:25:59;;;;;;;;;;;;;;;24.20;42.61;100020.75;1682015;84;20211;-87
2021/08/03 12:28:52;;;;;;;;;;;;;;;24.11;42.52;100029.53;1685907;84;20256;-83
2021/08/03 12:31:31;;;;;;;;;;;;;;;24.11;43.11;100019.55;1667827;84;22153;-83
2021/08/03 12:34:22;;;;;;;;;;;;;;;23.99;43.01;100019.67;1683430;83;20154;-89
2021/08/03 12:36:52;;;;;;;;;;;;;;;23.94;43.33;100030.41;1686193;83;20194;-92
2021/08/03 12:39:24;;;;;;;;;;;;;;;24.08;43.46;100008.45;1685192;84;20156;-85
2021/08/03 12:42:33;;;;;;;;;;;;;;;24.14;43.36;100010.16;1688441;83;20194;-84
2021/08/03 12:45:03;;;;;;;;;;;;;;;24.28;42.20;100007.36;1684900;83;20614;-87
2021/08/03 12:47:34;;;;;;;;;;;;;;;24.23;41.76;100005.95;1681711;83;20147;-85
2021/08/03 12:50:07;;;;;;;;;;;;;;;24.08;42.83;100001.70;1685752;84;20170;-83
2021/08/03 12:52:33;;;;;;;;;;;;;;;24.25;43.36;100001.11;1690084;84;20235;-85
2021/08/03 12:55:10;;;;;;;;;;;;;;;24.67;43.33;99997.88;1657375;84;20146;-82